Startpagina
METAR-TAF:

METAR-TAF

Vliegvelden :

Vliegbasis Chièvres

Chièvres, België

breedte: 50-34N, lengte: 003-50E, hoogte: 60 m

Actueel weer

Dit bericht is 26 minuten geleden gemaakt, om 05:55 UTC
Wind 7 kt uit het oosten
Temperatuur 1°C
Vochtigheid 80%
Druk 1027 hPa
Zicht 10 km of meer

METAR: EBCV 180555Z AUTO 08007KT 9999 NCD 01/M02 Q1027 BLU

Tijdstip: 07:21 (06:21 UTC)

Verwachting

Dit bericht is 14 uur en het 40 minuten geleden gemaakt, om 15:41 UTC
Verwachting geldig van 17 om 19 UTC tot 18 om 07 UTC
Wind 10 kt uit het oostnoordoosten
Zicht 10 km of meer
Onbewolkt

TAF: EBCV 171541Z 1719/1807 06010KT 9999 SKC BY EBWM

Waarnemingen en weersverwachtingen van meer dan 4000 vliegvelden (METAR en TAF).

De beschikbare stations zijn de gele en rode punten op de kaart.

Ga met uw muis naar het station om de naam te zien.

Klik dan om waarnemingen en weersverwachtingen te zien.

kaart wijzigen: klik op de groene knoppen met een zwart kruis om in te zoomen, op de groene knop met een streepje om uit te zoomen of op de groene pijlen voor aangrenzende kaarten.


METAR-TAF: